Time;durP1;ratioP1;P1;durP2;ratioP2;P2;SDS_P1;SDS_P2;PMS_P1;PMS_P2;Temp;Humidity;BMP_temperature;BMP_pressure;BME280_temperature;BME280_humidity;BME280_pressure;Samples;Min_cycle;Max_cycle;Signal;HPM_P1;HPM_P2
2021/03/12 00:00:38;;;;;;;32.13;20.73;;;5.90;74.40;;;;;;5037304;28;20099;-71
2021/03/12 00:03:06;;;;;;;29.65;21.25;;;5.80;74.50;;;;;;5037137;28;20116;-71
2021/03/12 00:05:32;;;;;;;30.67;21.10;;;5.80;74.40;;;;;;5037316;28;20072;-73
2021/03/12 00:07:57;;;;;;;30.92;20.80;;;5.80;74.30;;;;;;5037218;28;20033;-73
2021/03/12 00:10:26;;;;;;;30.65;21.23;;;5.80;74.00;;;;;;5037285;28;20105;-73
2021/03/12 00:12:52;;;;;;;34.58;21.40;;;5.80;74.70;;;;;;5036956;28;20026;-73
2021/03/12 00:15:20;;;;;;;34.60;21.40;;;5.70;75.60;;;;;;5037340;28;20017;-73
2021/03/12 00:17:47;;;;;;;34.17;22.35;;;5.70;75.80;;;;;;5037142;28;20101;-73
2021/03/12 00:20:34;;;;;;;31.13;23.10;;;5.70;76.20;;;;;;5036872;28;20038;-73
2021/03/12 00:23:00;;;;;;;34.05;23.05;;;5.60;76.50;;;;;;5037099;28;20078;-73
2021/03/12 00:25:35;;;;;;;28.33;21.63;;;5.60;77.10;;;;;;5036946;28;20113;-73
2021/03/12 00:28:01;;;;;;;31.60;21.60;;;5.50;77.10;;;;;;5037044;28;20028;-73
2021/03/12 00:30:26;;;;;;;30.38;22.30;;;5.50;77.10;;;;;;5035801;28;20033;-73
2021/03/12 00:32:52;;;;;;;31.98;22.13;;;5.60;76.60;;;;;;5036847;28;20433;-73
2021/03/12 00:35:18;;;;;;;31.88;22.95;;;5.60;76.40;;;;;;5036820;28;20064;-73
2021/03/12 00:37:44;;;;;;;35.95;23.30;;;5.60;76.40;;;;;;5036834;28;20021;-73
2021/03/12 00:40:13;;;;;;;33.40;23.45;;;5.60;76.40;;;;;;5035721;28;20021;-73
2021/03/12 00:42:40;;;;;;;36.10;24.17;;;5.60;76.60;;;;;;5036632;28;20032;-73
2021/03/12 00:45:07;;;;;;;34.42;23.15;;;5.60;76.30;;;;;;5036871;28;20026;-73
2021/03/12 00:47:33;;;;;;;33.85;24.60;;;5.50;76.80;;;;;;5036921;28;20041;-73
2021/03/12 00:49:58;;;;;;;34.08;23.17;;;5.50;76.90;;;;;;5036725;28;20064;-73
2021/03/12 00:52:24;;;;;;;33.95;23.00;;;5.50;77.60;;;;;;5035909;28;20026;-73
2021/03/12 00:54:50;;;;;;;32.30;23.20;;;5.50;77.10;;;;;;5036438;28;20092;-73
2021/03/12 00:57:15;;;;;;;34.60;24.77;;;5.50;77.90;;;;;;5036602;28;20026;-73
2021/03/12 00:59:41;;;;;;;36.58;23.10;;;5.50;78.00;;;;;;5036549;28;20036;-73
2021/03/12 01:02:06;;;;;;;34.17;24.35;;;5.50;77.90;;;;;;5036451;28;20501;-73
2021/03/12 01:04:32;;;;;;;34.50;24.70;;;5.50;77.90;;;;;;5036458;28;20040;-73
2021/03/12 01:06:58;;;;;;;33.70;24.27;;;5.50;78.10;;;;;;5036460;28;20402;-73
2021/03/12 01:09:23;;;;;;;33.75;23.27;;;5.50;78.60;;;;;;5036412;28;20029;-73
2021/03/12 01:11:49;;;;;;;32.72;21.92;;;5.60;78.70;;;;;;5036445;28;20017;-73
2021/03/12 01:14:15;;;;;;;36.10;23.70;;;5.60;77.20;;;;;;5036182;28;20107;-73
2021/03/12 01:16:40;;;;;;;31.27;23.42;;;5.70;77.60;;;;;;5036676;28;20025;-73
2021/03/12 01:19:06;;;;;;;33.78;23.92;;;5.70;77.30;;;;;;5036359;28;20080;-73
2021/03/12 01:21:32;;;;;;;34.47;21.98;;;5.70;77.40;;;;;;5035171;28;20334;-73
2021/03/12 01:23:58;;;;;;;34.40;23.98;;;5.70;77.50;;;;;;5036492;28;20109;-73
2021/03/12 01:26:23;;;;;;;33.05;23.77;;;5.70;78.10;;;;;;5036621;28;20030;-73
2021/03/12 01:28:49;;;;;;;32.38;23.48;;;5.60;79.10;;;;;;5036256;28;20291;-73
2021/03/12 01:31:15;;;;;;;31.88;23.83;;;5.50;80.20;;;;;;5036307;28;20025;-73
2021/03/12 01:33:40;;;;;;;31.98;22.70;;;5.50;80.10;;;;;;5036121;28;20048;-73
2021/03/12 01:36:06;;;;;;;34.05;23.27;;;5.60;79.60;;;;;;5036217;28;20025;-73
2021/03/12 01:38:32;;;;;;;32.85;23.63;;;5.70;80.00;;;;;;5036155;28;20025;-73
2021/03/12 01:40:57;;;;;;;34.17;25.02;;;5.70;80.00;;;;;;5036433;28;20028;-73
2021/03/12 01:43:23;;;;;;;34.72;23.70;;;5.70;80.60;;;;;;5036126;28;20030;-73
2021/03/12 01:45:50;;;;;;;35.95;24.45;;;5.60;80.40;;;;;;5036561;28;20432;-73
2021/03/12 01:48:18;;;;;;;33.40;24.02;;;5.60;80.50;;;;;;5036097;28;20426;-73
2021/03/12 01:50:51;;;;;;;31.05;22.80;;;5.60;80.80;;;;;;5035092;28;20052;-73
2021/03/12 01:53:19;;;;;;;36.92;22.75;;;5.70;80.40;;;;;;5035943;28;20029;-73
2021/03/12 01:55:45;;;;;;;33.85;23.48;;;5.70;80.30;;;;;;5036047;28;20410;-73
2021/03/12 01:58:11;;;;;;;31.35;23.35;;;5.60;79.90;;;;;;5035974;28;20029;-73
2021/03/12 02:00:37;;;;;;;35.42;22.55;;;5.50;78.20;;;;;;5034997;28;20033;-73
2021/03/12 02:03:07;;;;;;;33.00;21.88;;;5.40;78.60;;;;;;5037940;28;20029;-73
2021/03/12 02:05:34;;;;;;;34.60;24.40;;;5.40;79.20;;;;;;5040060;28;20341;-73
2021/03/12 02:08:00;;;;;;;35.85;23.45;;;5.40;80.00;;;;;;5039447;28;20033;-73
2021/03/12 02:10:27;;;;;;;36.92;22.27;;;5.40;79.10;;;;;;5039412;28;20095;-73
2021/03/12 02:13:15;;;;;;;37.50;22.35;;;5.30;78.50;;;;;;5039174;28;20124;-73
2021/03/12 02:15:50;;;;;;;30.92;21.33;;;5.30;77.50;;;;;;5039743;28;20032;-73
2021/03/12 02:19:06;;;;;;;33.45;21.10;;;5.40;77.00;;;;;;5039285;28;20365;-73
2021/03/12 02:21:45;;;;;;;31.40;21.98;;;5.50;77.10;;;;;;5048976;28;20069;-73
2021/03/12 02:24:25;;;;;;;35.00;22.17;;;5.40;75.80;;;;;;5039032;28;20087;-73
2021/03/12 02:27:01;;;;;;;31.70;21.92;;;5.30;75.50;;;;;;5039448;28;20029;-73
2021/03/12 02:29:28;;;;;;;31.20;20.92;;;5.20;75.90;;;;;;5039000;28;20033;-73
2021/03/12 02:31:55;;;;;;;36.15;20.35;;;5.10;76.70;;;;;;5039023;28;20032;-73
2021/03/12 02:34:25;;;;;;;34.85;21.20;;;5.10;76.90;;;;;;5038827;28;20030;-73
2021/03/12 02:36:56;;;;;;;30.88;21.95;;;5.20;77.10;;;;;;5039210;28;20021;-73
2021/03/12 02:39:25;;;;;;;32.55;21.38;;;5.10;76.80;;;;;;5039195;28;20035;-73
2021/03/12 02:41:53;;;;;;;41.58;22.77;;;5.20;76.70;;;;;;5038864;28;20060;-73
2021/03/12 02:44:21;;;;;;;32.60;22.23;;;5.10;77.20;;;;;;5037575;28;20125;-73
2021/03/12 02:46:48;;;;;;;32.70;22.42;;;5.10;77.40;;;;;;5038844;28;20087;-73
2021/03/12 02:49:14;;;;;;;31.83;22.23;;;5.00;77.70;;;;;;5038976;28;20038;-73
2021/03/12 02:51:42;;;;;;;32.83;23.10;;;5.00;78.00;;;;;;5038864;28;20026;-73
2021/03/12 02:54:09;;;;;;;38.67;22.48;;;5.00;78.10;;;;;;5038461;28;20332;-73
2021/03/12 02:56:35;;;;;;;36.80;22.55;;;4.90;77.80;;;;;;5038910;28;20026;-73
2021/03/12 02:59:02;;;;;;;33.92;23.05;;;4.80;77.20;;;;;;5038506;28;20037;-73
2021/03/12 03:01:28;;;;;;;34.90;23.20;;;4.60;77.50;;;;;;5038425;28;20025;-73
2021/03/12 03:03:55;;;;;;;35.85;23.25;;;4.40;77.70;;;;;;5038342;28;20079;-73
2021/03/12 03:06:21;;;;;;;35.42;23.13;;;4.30;77.50;;;;;;5038628;28;20022;-73
2021/03/12 03:08:47;;;;;;;39.60;24.73;;;4.30;77.60;;;;;;5038400;28;20033;-73
2021/03/12 03:11:15;;;;;;;40.60;24.05;;;4.20;77.50;;;;;;5038315;28;20030;-73
2021/03/12 03:13:43;;;;;;;36.60;24.08;;;4.20;77.50;;;;;;5037666;28;20030;-73
2021/03/12 03:16:19;;;;;;;34.72;24.48;;;4.10;77.30;;;;;;5038496;28;20025;-73
2021/03/12 03:18:46;;;;;;;37.58;25.17;;;4.00;77.50;;;;;;5038202;28;20044;-73
2021/03/12 03:21:13;;;;;;;37.85;25.95;;;4.00;78.00;;;;;;5038145;28;20041;-73
2021/03/12 03:23:40;;;;;;;39.45;25.95;;;4.00;78.50;;;;;;5038065;28;20342;-73
2021/03/12 03:26:06;;;;;;;40.30;27.38;;;3.90;79.10;;;;;;5038071;28;20432;-73
2021/03/12 03:28:32;;;;;;;41.30;26.45;;;3.80;79.70;;;;;;5038033;28;20034;-73
2021/03/12 03:31:00;;;;;;;40.55;25.88;;;3.80;79.90;;;;;;5036864;28;20025;-73
2021/03/12 03:33:26;;;;;;;39.25;25.95;;;3.70;80.20;;;;;;5037663;28;20029;-73
2021/03/12 03:35:52;;;;;;;41.55;26.52;;;3.70;80.50;;;;;;5038100;28;20021;-73
2021/03/12 03:38:18;;;;;;;40.38;26.17;;;3.60;80.80;;;;;;5037998;28;20393;-73
2021/03/12 03:40:43;;;;;;;43.30;26.35;;;3.60;81.10;;;;;;5037904;28;20057;-73
2021/03/12 03:43:12;;;;;;;36.42;25.42;;;3.60;81.40;;;;;;5037604;28;20079;-73
2021/03/12 03:45:39;;;;;;;46.95;24.60;;;3.50;81.70;;;;;;5037972;28;20061;-73
2021/03/12 03:48:07;;;;;;;43.08;26.55;;;3.50;81.60;;;;;;5037657;28;20037;-73
2021/03/12 03:50:35;;;;;;;40.78;26.75;;;3.50;80.70;;;;;;5037777;28;20330;-73
2021/03/12 03:53:01;;;;;;;46.22;28.17;;;3.60;79.60;;;;;;5037310;28;20079;-73
2021/03/12 03:55:28;;;;;;;38.00;26.23;;;3.80;79.30;;;;;;5037569;28;20025;-73
2021/03/12 03:57:53;;;;;;;41.58;26.67;;;3.90;78.80;;;;;;5037603;28;20021;-73
2021/03/12 04:00:20;;;;;;;38.95;25.85;;;4.00;78.00;;;;;;5037599;28;20018;-73
2021/03/12 04:02:47;;;;;;;37.72;26.60;;;4.00;77.60;;;;;;5036265;28;20025;-73
2021/03/12 04:05:14;;;;;;;38.22;26.23;;;3.90;77.40;;;;;;5037205;28;20392;-73
2021/03/12 04:07:41;;;;;;;37.28;24.42;;;3.80;78.20;;;;;;5037417;28;20313;-73
2021/03/12 04:10:09;;;;;;;38.03;26.52;;;3.60;79.00;;;;;;5037358;28;20021;-73
2021/03/12 04:12:36;;;;;;;40.25;26.52;;;3.60;80.10;;;;;;5037259;28;20329;-73
2021/03/12 04:15:05;;;;;;;42.40;28.58;;;3.50;79.80;;;;;;5037215;28;20147;-73
2021/03/12 04:17:32;;;;;;;40.95;28.65;;;3.40;80.20;;;;;;5037087;28;20041;-73
2021/03/12 04:19:59;;;;;;;42.38;27.45;;;3.30;81.20;;;;;;5036722;28;20028;-73
2021/03/12 04:22:26;;;;;;;43.83;28.35;;;3.20;81.90;;;;;;5035968;28;20033;-73
2021/03/12 04:24:52;;;;;;;40.70;27.98;;;3.20;82.40;;;;;;5037157;28;20029;-73
2021/03/12 04:27:19;;;;;;;43.25;28.23;;;3.20;82.70;;;;;;5035999;28;20032;-73
2021/03/12 04:29:45;;;;;;;39.78;26.52;;;3.30;82.60;;;;;;5037207;28;20018;-73
2021/03/12 04:32:11;;;;;;;43.00;26.35;;;3.40;82.10;;;;;;5036907;28;20107;-73
2021/03/12 04:34:37;;;;;;;41.72;26.38;;;3.40;81.80;;;;;;5036938;28;20029;-73
2021/03/12 04:37:03;;;;;;;43.30;27.55;;;3.40;82.20;;;;;;5037099;28;20048;-73
2021/03/12 04:39:30;;;;;;;41.10;27.55;;;3.40;82.80;;;;;;5036802;28;20326;-73
2021/03/12 04:41:56;;;;;;;44.70;28.65;;;3.40;82.70;;;;;;5036685;28;20112;-73
2021/03/12 04:44:23;;;;;;;42.05;27.20;;;3.30;83.20;;;;;;5036647;28;20079;-73
2021/03/12 04:46:49;;;;;;;47.33;29.02;;;3.30;82.70;;;;;;5036981;28;20037;-73
2021/03/12 04:49:16;;;;;;;43.20;26.67;;;3.30;82.40;;;;;;5036888;28;20364;-73
2021/03/12 04:51:47;;;;;;;40.63;28.10;;;3.30;82.90;;;;;;5036642;28;20030;-73
2021/03/12 04:54:16;;;;;;;40.83;28.02;;;3.20;82.90;;;;;;5036549;28;20112;-73
2021/03/12 04:56:42;;;;;;;43.70;28.45;;;3.20;83.20;;;;;;5037470;28;20099;-73
2021/03/12 04:59:09;;;;;;;40.97;27.33;;;3.20;83.70;;;;;;5036559;28;20410;-73
2021/03/12 05:01:36;;;;;;;44.30;29.40;;;3.20;83.70;;;;;;5036789;28;20079;-73
2021/03/12 05:04:04;;;;;;;45.60;29.13;;;3.20;83.70;;;;;;5036456;28;20017;-73
2021/03/12 05:06:33;;;;;;;43.05;28.65;;;3.20;83.70;;;;;;5036792;28;20036;-73
2021/03/12 05:08:59;;;;;;;44.95;29.33;;;3.10;84.10;;;;;;5036419;28;20429;-73
2021/03/12 05:11:25;;;;;;;48.08;29.23;;;3.10;84.20;;;;;;5036453;28;20040;-73
2021/03/12 05:13:52;;;;;;;45.97;30.50;;;3.10;84.30;;;;;;5036325;28;20057;-73
2021/03/12 05:16:18;;;;;;;43.30;29.92;;;3.10;85.00;;;;;;5036709;28;20370;-73
2021/03/12 05:18:44;;;;;;;43.80;28.60;;;3.10;85.00;;;;;;5036648;28;20041;-73
2021/03/12 05:21:12;;;;;;;42.53;27.67;;;3.20;84.60;;;;;;5036319;28;20068;-73
2021/03/12 05:23:39;;;;;;;44.00;28.00;;;3.30;84.20;;;;;;5036150;28;20413;-73
2021/03/12 05:26:04;;;;;;;39.80;27.15;;;3.20;84.00;;;;;;5036318;28;20436;-73
2021/03/12 05:28:30;;;;;;;47.70;27.52;;;3.20;83.90;;;;;;5036297;28;20094;-73
2021/03/12 05:30:56;;;;;;;44.25;29.20;;;3.20;84.30;;;;;;5035198;28;20453;-73
2021/03/12 05:33:21;;;;;;;40.58;28.23;;;3.10;84.60;;;;;;5036189;28;20372;-73
2021/03/12 05:35:47;;;;;;;41.72;27.83;;;3.10;84.60;;;;;;5036656;28;20021;-73
2021/03/12 05:38:13;;;;;;;46.67;29.50;;;3.10;84.80;;;;;;5037308;28;20017;-73
2021/03/12 05:40:40;;;;;;;44.30;29.17;;;3.00;85.10;;;;;;5040220;28;20444;-73
2021/03/12 05:43:09;;;;;;;43.35;28.83;;;3.10;85.00;;;;;;5039829;28;20029;-73
2021/03/12 05:45:35;;;;;;;40.83;26.75;;;3.10;85.30;;;;;;5040322;28;20033;-73
2021/03/12 05:48:01;;;;;;;41.08;26.20;;;3.00;85.50;;;;;;5038814;28;20033;-73
2021/03/12 05:50:27;;;;;;;47.50;29.73;;;3.00;85.60;;;;;;5039836;28;20064;-73
2021/03/12 05:52:53;;;;;;;42.28;28.42;;;3.00;86.10;;;;;;5039616;28;20458;-73
2021/03/12 05:55:20;;;;;;;46.30;29.30;;;3.10;85.90;;;;;;5039716;28;20029;-73
2021/03/12 05:57:47;;;;;;;46.85;30.02;;;3.20;84.80;;;;;;5039900;28;20025;-73
2021/03/12 06:00:14;;;;;;;44.78;30.20;;;3.40;83.90;;;;;;5039936;28;20017;-73
2021/03/12 06:02:40;;;;;;;44.38;29.58;;;3.50;83.70;;;;;;5039506;28;20033;-73
2021/03/12 06:05:10;;;;;;;45.78;30.15;;;3.60;84.50;;;;;;5038405;28;20108;-73
2021/03/12 06:07:38;;;;;;;39.55;28.05;;;3.80;83.90;;;;;;5039667;28;20080;-73
2021/03/12 06:10:05;;;;;;;44.88;30.27;;;3.90;83.40;;;;;;5039470;28;20072;-73
2021/03/12 06:12:32;;;;;;;43.92;29.73;;;4.00;83.20;;;;;;5039370;28;20029;-73
2021/03/12 06:15:00;;;;;;;50.85;27.58;;;4.10;83.00;;;;;;5039463;28;20045;-73
2021/03/12 06:17:45;;;;;;;48.67;30.13;;;4.20;82.80;;;;;;5039440;28;20112;-73
2021/03/12 06:20:19;;;;;;;45.85;28.67;;;4.30;82.90;;;;;;5039249;28;20112;-73
2021/03/12 06:22:51;;;;;;;40.63;26.88;;;4.40;83.70;;;;;;5039516;28;20325;-73
2021/03/12 06:25:21;;;;;;;50.72;27.80;;;4.40;83.70;;;;;;5039116;28;20295;-73
2021/03/12 06:27:48;;;;;;;45.80;29.45;;;4.50;83.20;;;;;;5039327;28;20029;-73
2021/03/12 06:30:16;;;;;;;40.90;28.42;;;4.60;82.10;;;;;;5039412;28;20024;-73
2021/03/12 06:32:46;;;;;;;37.85;28.55;;;4.80;82.10;;;;;;5038968;28;20022;-73
2021/03/12 06:35:17;;;;;;;39.95;27.33;;;4.90;82.40;;;;;;5038911;28;20094;-73
2021/03/12 06:37:47;;;;;;;37.63;27.67;;;5.00;82.40;;;;;;5039235;28;20360;-73
2021/03/12 06:40:18;;;;;;;38.15;26.92;;;5.20;81.20;;;;;;5038882;28;20029;-73
2021/03/12 06:43:02;;;;;;;46.25;28.02;;;5.30;80.80;;;;;;5038826;28;20096;-73
2021/03/12 06:45:29;;;;;;;39.55;27.95;;;5.40;81.30;;;;;;5038733;28;20042;-73
2021/03/12 06:48:16;;;;;;;41.53;26.98;;;5.50;81.00;;;;;;5038005;28;20314;-73
2021/03/12 06:50:49;;;;;;;38.47;27.77;;;5.70;80.90;;;;;;5040605;28;20064;-73
2021/03/12 06:53:21;;;;;;;37.60;27.10;;;5.70;81.20;;;;;;5038473;28;20030;-73
2021/03/12 06:55:47;;;;;;;38.30;26.92;;;5.80;79.70;;;;;;5038607;28;20084;-73
2021/03/12 06:58:13;;;;;;;35.63;25.52;;;5.90;79.80;;;;;;5038520;28;20021;-73
2021/03/12 07:00:39;;;;;;;39.97;26.63;;;6.10;78.00;;;;;;5037481;28;20368;-73
2021/03/12 07:03:22;;;;;;;37.90;26.52;;;6.20;76.10;;;;;;5038422;28;20018;-73
2021/03/12 07:06:03;;;;;;;35.78;24.88;;;6.20;76.90;;;;;;5038402;28;20116;-73
2021/03/12 07:08:29;;;;;;;35.55;25.08;;;6.20;77.20;;;;;;5038668;28;20029;-73
2021/03/12 07:10:55;;;;;;;40.55;25.83;;;6.30;77.40;;;;;;5038349;28;20325;-73
2021/03/12 07:13:21;;;;;;;37.35;26.05;;;6.30;77.60;;;;;;5037035;28;20025;-73
2021/03/12 07:15:50;;;;;;;38.13;25.30;;;6.50;77.10;;;;;;5038602;28;20036;-73
2021/03/12 07:18:16;;;;;;;33.92;24.63;;;6.50;76.90;;;;;;5038185;28;20029;-73
2021/03/12 07:20:42;;;;;;;32.40;25.05;;;6.60;77.80;;;;;;5037990;28;20501;-73
2021/03/12 07:23:08;;;;;;;32.90;24.40;;;6.70;78.20;;;;;;5038254;28;20030;-73
2021/03/12 07:25:34;;;;;;;44.35;25.90;;;6.80;76.00;;;;;;5038316;28;20057;-73
2021/03/12 07:28:05;;;;;;;37.25;25.70;;;6.90;75.40;;;;;;5038157;28;20029;-73
2021/03/12 07:30:33;;;;;;;33.35;24.10;;;6.90;76.00;;;;;;5037976;28;20029;-73
2021/03/12 07:33:01;;;;;;;35.92;26.75;;;6.90;76.60;;;;;;5037758;28;20026;-73
2021/03/12 07:35:27;;;;;;;35.78;25.52;;;6.90;76.70;;;;;;5036799;28;20387;-73
2021/03/12 07:37:59;;;;;;;31.25;24.77;;;7.00;77.70;;;;;;5038096;28;20029;-73
2021/03/12 07:40:26;;;;;;;36.50;26.10;;;7.00;77.00;;;;;;5037776;28;20071;-73
2021/03/12 07:42:54;;;;;;;37.88;25.95;;;7.10;75.90;;;;;;5037689;28;20093;-73
2021/03/12 07:45:20;;;;;;;34.08;25.23;;;7.10;76.90;;;;;;5037922;28;20029;-73
2021/03/12 07:47:47;;;;;;;37.83;26.15;;;7.20;76.50;;;;;;5037665;28;20326;-73
2021/03/12 07:50:35;;;;;;;30.30;24.00;;;7.20;74.50;;;;;;5037590;28;20026;-73
2021/03/12 07:53:02;;;;;;;36.15;25.35;;;7.30;75.50;;;;;;5037480;28;20025;-73
2021/03/12 07:55:39;;;;;;;37.83;25.80;;;7.40;75.60;;;;;;5036391;28;20030;-73
2021/03/12 07:58:09;;;;;;;34.63;26.23;;;7.40;73.80;;;;;;5037733;28;20017;-73
2021/03/12 08:00:53;;;;;;;33.95;25.55;;;7.50;74.50;;;;;;5037183;28;20032;-73
2021/03/12 08:03:29;;;;;;;36.75;25.70;;;7.50;74.40;;;;;;5037382;28;20307;-73
2021/03/12 08:05:55;;;;;;;33.70;25.75;;;7.40;73.50;;;;;;5037900;28;20034;-73
2021/03/12 08:08:32;;;;;;;34.65;24.92;;;7.40;74.70;;;;;;5037267;28;20032;-73
2021/03/12 08:11:22;;;;;;;38.90;27.02;;;7.50;74.10;;;;;;5036110;28;20062;-73
2021/03/12 08:13:49;;;;;;;37.03;25.30;;;7.50;73.40;;;;;;5037263;28;20029;-73
2021/03/12 08:16:16;;;;;;;39.13;25.98;;;7.60;73.60;;;;;;5037059;28;20034;-73
2021/03/12 08:18:42;;;;;;;37.33;27.80;;;7.70;73.50;;;;;;5037056;28;20041;-73
2021/03/12 08:21:32;;;;;;;34.25;25.27;;;8.00;73.20;;;;;;5035833;28;20046;-73
2021/03/12 08:24:01;;;;;;;33.08;24.27;;;8.30;72.50;;;;;;5037196;28;20025;-73
2021/03/12 08:26:49;;;;;;;31.40;24.05;;;8.80;70.20;;;;;;5037058;28;20033;-73
2021/03/12 08:29:30;;;;;;;34.08;24.30;;;9.20;67.60;;;;;;5036131;28;20329;-73
2021/03/12 08:31:56;;;;;;;31.27;23.73;;;9.70;68.10;;;;;;5036848;28;20159;-73
2021/03/12 08:34:41;;;;;;;32.63;23.63;;;10.20;66.00;;;;;;5036973;28;20032;-73
2021/03/12 08:37:25;;;;;;;28.38;23.35;;;11.00;64.60;;;;;;5037018;28;20029;-73
2021/03/12 08:40:14;;;;;;;34.00;24.30;;;11.70;62.70;;;;;;5036753;28;20025;-74
2021/03/12 08:42:57;;;;;;;30.30;23.92;;;12.30;60.40;;;;;;5039158;28;20029;-74
2021/03/12 08:45:41;;;;;;;31.25;23.73;;;12.70;60.50;;;;;;5037122;28;20022;-73
2021/03/12 08:48:08;;;;;;;32.80;25.40;;;13.10;57.90;;;;;;5036948;28;20037;-73
2021/03/12 08:50:39;;;;;;;33.75;24.20;;;13.00;57.50;;;;;;5036675;28;20047;-74
2021/03/12 08:53:05;;;;;;;35.42;25.52;;;12.90;57.70;;;;;;5036796;28;20044;-73
2021/03/12 08:55:35;;;;;;;32.15;23.88;;;12.90;58.10;;;;;;5036683;28;20025;-74
2021/03/12 08:58:21;;;;;;;29.23;23.77;;;12.90;58.50;;;;;;5036574;28;20098;-73
2021/03/12 09:00:53;;;;;;;30.30;24.92;;;12.80;57.90;;;;;;5036803;28;20026;-73
2021/03/12 09:03:21;;;;;;;34.15;25.00;;;12.80;58.20;;;;;;5036549;28;20024;-74
2021/03/12 09:05:52;;;;;;;30.40;24.50;;;12.80;59.30;;;;;;5036561;28;20105;-73
2021/03/12 09:08:25;;;;;;;28.77;23.65;;;12.70;58.90;;;;;;5036602;28;20022;-74
2021/03/12 09:10:52;;;;;;;29.02;24.02;;;13.00;58.60;;;;;;5036848;28;20287;-74
2021/03/12 09:13:29;;;;;;;34.38;24.95;;;13.40;57.50;;;;;;5038742;28;20112;-74
2021/03/12 09:15:56;;;;;;;30.52;25.05;;;13.80;56.30;;;;;;5040958;28;20029;-74
2021/03/12 09:18:23;;;;;;;32.47;25.38;;;14.40;55.20;;;;;;5040453;28;20026;-74
2021/03/12 09:20:54;;;;;;;28.85;24.90;;;14.80;53.40;;;;;;5040230;28;20033;-72
2021/03/12 09:23:41;;;;;;;30.00;25.63;;;14.90;53.20;;;;;;5040273;28;20428;-73
2021/03/12 09:26:14;;;;;;;32.15;26.05;;;14.80;53.70;;;;;;5040446;28;20025;-73
2021/03/12 09:28:41;;;;;;;33.58;24.02;;;15.10;53.80;;;;;;5040374;28;20029;-73
2021/03/12 09:31:08;;;;;;;26.58;23.48;;;15.40;53.50;;;;;;5040197;28;20102;-72
2021/03/12 09:33:36;;;;;;;26.98;24.08;;;15.60;52.00;;;;;;5040265;28;20329;-74
2021/03/12 09:36:24;;;;;;;31.20;24.88;;;15.70;51.70;;;;;;5040164;28;20028;-74
2021/03/12 09:38:51;;;;;;;30.58;23.38;;;15.60;51.80;;;;;;5040042;28;20032;-73
2021/03/12 09:41:26;;;;;;;33.05;23.85;;;15.10;54.20;;;;;;5040134;28;20321;-73
2021/03/12 09:44:13;;;;;;;29.58;24.05;;;14.70;55.10;;;;;;5039815;28;20036;-74
2021/03/12 09:46:40;;;;;;;28.33;23.58;;;14.80;54.80;;;;;;5040105;28;20026;-74
2021/03/12 09:49:16;;;;;;;28.70;24.50;;;14.70;56.10;;;;;;5039820;28;20460;-74
2021/03/12 09:51:44;;;;;;;30.83;25.05;;;14.70;56.00;;;;;;5039961;28;20456;-74
2021/03/12 09:54:12;;;;;;;29.15;25.13;;;14.70;56.10;;;;;;5039643;28;20036;-74
2021/03/12 09:56:40;;;;;;;29.17;26.10;;;14.60;56.40;;;;;;5039830;28;20336;-74
2021/03/12 09:59:06;;;;;;;37.22;25.48;;;14.60;57.40;;;;;;5038614;28;20108;-73
2021/03/12 10:01:37;;;;;;;29.08;24.65;;;14.90;55.30;;;;;;5039921;28;20018;-74
2021/03/12 10:04:21;;;;;;;29.33;25.88;;;15.10;54.80;;;;;;5039509;28;20033;-74
2021/03/12 10:07:16;;;;;;;31.52;25.00;;;15.20;54.50;;;;;;5039840;28;20027;-74
2021/03/12 10:09:44;;;;;;;28.92;24.15;;;15.40;54.30;;;;;;5043414;28;20042;-74
2021/03/12 10:12:18;;;;;;;32.60;26.23;;;15.40;55.50;;;;;;5039125;28;20021;-74
2021/03/12 10:14:45;;;;;;;32.88;25.88;;;15.50;55.80;;;;;;5051268;28;20037;-74
2021/03/12 10:17:21;;;;;;;29.17;25.02;;;15.80;54.10;;;;;;5039349;28;20026;-72
2021/03/12 10:19:56;;;;;;;28.10;25.08;;;16.00;52.70;;;;;;5039515;28;20051;-74
2021/03/12 10:22:24;;;;;;;28.27;24.75;;;16.20;52.90;;;;;;5039360;28;20028;-73
2021/03/12 10:25:18;;;;;;;28.30;24.95;;;16.40;53.30;;;;;;5039052;28;20029;-74
2021/03/12 10:28:02;;;;;;;29.77;25.45;;;16.70;52.00;;;;;;5039101;28;20112;-74
2021/03/12 10:30:37;;;;;;;29.75;24.13;;;16.80;53.60;;;;;;5039073;28;20414;-72
2021/03/12 10:33:24;;;;;;;32.65;26.55;;;17.00;52.40;;;;;;5039088;28;20025;-74
2021/03/12 10:35:51;;;;;;;29.88;25.88;;;16.70;49.80;;;;;;5038756;28;20112;-74
2021/03/12 10:38:18;;;;;;;29.38;23.98;;;16.20;52.70;;;;;;5039031;28;20111;-74
2021/03/12 10:40:47;;;;;;;28.02;23.73;;;16.50;50.70;;;;;;5039140;28;20028;-74
2021/03/12 10:43:17;;;;;;;29.08;23.88;;;16.00;52.10;;;;;;5038827;28;20030;-74
2021/03/12 10:45:48;;;;;;;29.92;24.10;;;15.90;53.70;;;;;;5054517;28;20116;-74
2021/03/12 10:48:15;;;;;;;32.78;26.13;;;16.20;53.70;;;;;;5038968;28;20021;-74
2021/03/12 10:50:42;;;;;;;27.02;23.33;;;16.20;52.10;;;;;;5038769;28;20075;-74
2021/03/12 10:53:13;;;;;;;31.23;23.90;;;16.00;53.90;;;;;;5038655;28;20101;-74
2021/03/12 10:55:45;;;;;;;33.30;24.42;;;15.90;55.50;;;;;;5038652;28;20107;-74
2021/03/12 10:58:37;;;;;;;29.88;24.73;;;15.50;54.80;;;;;;5038752;28;20013;-74
2021/03/12 11:01:04;;;;;;;26.73;23.70;;;15.50;55.60;;;;;;5038827;28;20032;-74
2021/03/12 11:03:29;;;;;;;26.00;22.33;;;15.60;55.90;;;;;;5038512;28;20028;-72
2021/03/12 11:05:55;;;;;;;28.13;23.23;;;16.00;55.30;;;;;;5054035;28;20037;-74
2021/03/12 11:08:21;;;;;;;26.90;21.17;;;15.80;57.90;;;;;;5037330;28;20064;-74
2021/03/12 11:10:47;;;;;;;24.73;20.58;;;15.10;56.40;;;;;;5038529;28;20079;-74
2021/03/12 11:13:13;;;;;;;25.40;20.10;;;14.70;58.10;;;;;;5037121;28;20385;-72
2021/03/12 11:15:39;;;;;;;28.42;21.10;;;14.20;59.40;;;;;;5038162;28;20057;-73
2021/03/12 11:18:04;;;;;;;26.70;19.77;;;13.50;60.10;;;;;;5038266;28;20433;-74
2021/03/12 11:20:30;;;;;;;22.60;18.23;;;12.80;63.10;;;;;;5037915;28;20080;-74
2021/03/12 11:22:56;;;;;;;24.73;19.77;;;12.40;65.70;;;;;;5038281;28;20029;-74
2021/03/12 11:25:22;;;;;;;25.17;19.55;;;11.80;67.00;;;;;;5038152;28;20330;-73
2021/03/12 11:27:48;;;;;;;25.90;19.88;;;11.50;68.90;;;;;;5038240;28;20030;-74
2021/03/12 11:30:17;;;;;;;28.45;19.27;;;11.20;71.50;;;;;;5037986;28;20052;-74
2021/03/12 11:32:43;;;;;;;26.23;19.30;;;11.00;72.90;;;;;;5038001;28;20024;-74
2021/03/12 11:35:10;;;;;;;28.40;20.48;;;10.70;74.40;;;;;;5037247;28;20041;-74
2021/03/12 11:37:36;;;;;;;26.40;21.40;;;10.40;75.80;;;;;;5038040;28;20028;-74
2021/03/12 11:40:04;;;;;;;27.75;21.52;;;10.20;77.30;;;;;;5037808;28;20071;-74
2021/03/12 11:42:30;;;;;;;29.60;21.48;;;10.20;77.20;;;;;;5038091;28;20419;-74
2021/03/12 11:44:58;;;;;;;31.95;21.83;;;10.10;77.70;;;;;;5037837;28;20156;-74
2021/03/12 11:47:24;;;;;;;32.50;23.23;;;10.00;78.20;;;;;;5037834;28;20029;-74
2021/03/12 11:49:50;;;;;;;29.63;23.30;;;10.00;78.60;;;;;;5037620;28;20426;-74
2021/03/12 11:52:17;;;;;;;34.47;22.58;;;9.90;78.20;;;;;;5037543;28;20029;-74
2021/03/12 11:54:42;;;;;;;31.30;22.75;;;9.90;78.90;;;;;;5036312;28;20116;-74
2021/03/12 11:57:08;;;;;;;31.27;22.73;;;9.80;79.00;;;;;;5037764;28;20521;-74
2021/03/12 11:59:34;;;;;;;31.17;22.55;;;9.80;79.10;;;;;;5037453;28;20056;-74
2021/03/12 12:02:00;;;;;;;32.75;23.55;;;9.80;79.40;;;;;;5037399;28;20014;-74
2021/03/12 12:04:29;;;;;;;31.92;23.83;;;9.80;79.60;;;;;;5037314;28;20037;-74
2021/03/12 12:06:55;;;;;;;35.75;23.40;;;9.80;79.80;;;;;;5037574;28;20021;-74
2021/03/12 12:09:21;;;;;;;34.60;24.30;;;9.70;80.60;;;;;;5037553;28;20372;-74
2021/03/12 12:11:47;;;;;;;37.30;25.80;;;9.60;80.50;;;;;;5037212;28;20047;-74
2021/03/12 12:14:14;;;;;;;35.63;25.73;;;9.40;81.40;;;;;;5036968;28;20410;-74
2021/03/12 12:16:40;;;;;;;33.00;23.55;;;9.40;81.70;;;;;;5037308;28;20025;-74
2021/03/12 12:19:11;;;;;;;32.72;24.98;;;9.40;82.10;;;;;;5037131;28;20037;-74
2021/03/12 12:21:37;;;;;;;34.20;24.48;;;9.50;82.30;;;;;;5052483;28;20052;-74
2021/03/12 12:24:05;;;;;;;31.10;22.80;;;9.50;82.00;;;;;;5036940;28;20025;-74
2021/03/12 12:26:32;;;;;;;31.02;23.98;;;9.60;81.90;;;;;;5037118;28;20060;-74
2021/03/12 12:28:58;;;;;;;34.95;24.55;;;9.60;81.30;;;;;;5036991;28;20022;-74
2021/03/12 12:31:24;;;;;;;32.72;23.88;;;9.60;81.00;;;;;;5037206;28;20029;-74
2021/03/12 12:33:50;;;;;;;31.05;22.83;;;9.50;81.60;;;;;;5036785;28;20091;-74
2021/03/12 12:36:15;;;;;;;32.90;23.15;;;9.50;81.60;;;;;;5036869;28;20018;-74
2021/03/12 12:38:41;;;;;;;34.05;23.98;;;9.50;82.10;;;;;;5036793;28;20032;-74
2021/03/12 12:41:06;;;;;;;29.42;24.40;;;9.50;82.20;;;;;;5037077;28;20079;-74
2021/03/12 12:43:33;;;;;;;33.42;21.83;;;9.60;81.50;;;;;;5036705;28;20393;-74